Keene, NH

7:37 PM EDT on April 21, 2015 (GMT -0400)
Orange Municipal | | Change Station
CLOSE
Current Station
Airport
Location: Orange,
Elevation: 554 ft
Nearby Weather Stations

Elev 554 ft 42.57 °N, 72.29 °W | Updated 45 minutes ago

Partly Cloudy
Partly Cloudy
56 °F
Feels Like 56 °F
N
8
Wind Variable Wind from NW

Today
High -- | Low -- °F
--% Chance of Precip.
Yesterday
High -- | Low -- °F
Precip. -- in
5:58 AM 7:38 PM
Waxing Crescent, 13% visible
Pressure 29.67 in
Visibility 10.0 miles
Clouds Clear
Dew Point 36 °F
Humidity 47%
Rainfall 0.35 in
Snow Depth Not available.
UV 0 out of 12
Pollen .50 out of 12
Air Quality Not available.
Flu Activity Regional
METAR KORE 212252Z AUTO 32007KT 10SM CLR 13/02 A2966 RMK AO2 SLP047 T01330022

More Conditions Fewer Conditions

Pressure 29.67 in
Visibility 10.0 miles
Clouds Clear
Dew Point 36 °F
Humidity 47%
Rainfall 0.35 in
Snow Depth Not available.
UV 0 out of 12
Pollen .50 out of 12
Air Quality Not available.
Flu Activity Regional
METAR KORE 212252Z AUTO 32007KT 10SM CLR 13/02 A2966 RMK AO2 SLP047 T01330022

More Conditions Fewer Conditions

10-Day Weather Forecast

Almanac

Astronomy

Apr. 21, 2015 Rise Set
Actual Time
Civil Twilight
Nautical Twilight
Astronomical Twilight
Moon
Length of Visible Light
Length of Day
Tomorrow will be .
, % of the Moon is Illuminated

Today's Extremes

State Highs State Lows

Community

WunderPhotos

Upload Photos

1,815,579 photos uploaded!

WunderBlogs® & News

Nearby

Air Quality

  Air Quality AQ Index Pollutant
Not available.

Snow Depth

Station Depth Elevation

Earthquake Activity

City Distance Mag. Time & Date
Minimum magnitude displayed is 2.5.

Coastal Water Temperatures

Place Temperature

Stations

Nearby Weather Stations

Station Location Temp. Windchill Dew Point Humidity Wind Precip. Elev Updated Type